sensor_id;sensor_type;location;lat;lon;timestamp;pressure;altitude;pressure_sealevel;temperature;humidity
47154;BME280;32907;41.412;2.164;2023-04-03T00:02:00;100651.66;;;19.94;35.52
47154;BME280;32907;41.412;2.164;2023-04-03T00:04:28;100711.72;;;20.32;35.38
47154;BME280;32907;41.412;2.164;2023-04-03T00:06:56;100692.00;;;20.16;35.43
47154;BME280;32907;41.412;2.164;2023-04-03T00:09:24;100666.25;;;20.03;35.38
47154;BME280;32907;41.412;2.164;2023-04-03T00:11:53;100698.50;;;20.20;35.89
47154;BME280;32907;41.412;2.164;2023-04-03T00:14:21;100660.94;;;19.93;35.62
47154;BME280;32907;41.412;2.164;2023-04-03T00:16:49;100683.31;;;20.14;36.18
47154;BME280;32907;41.412;2.164;2023-04-03T00:19:18;100715.00;;;20.29;35.82
47154;BME280;32907;41.412;2.164;2023-04-03T00:21:45;100696.06;;;20.19;36.25
47154;BME280;32907;41.412;2.164;2023-04-03T00:24:14;100695.53;;;20.17;36.56
47154;BME280;32907;41.412;2.164;2023-04-03T00:26:42;100713.13;;;20.29;36.44
47154;BME280;32907;41.412;2.164;2023-04-03T00:29:10;100666.03;;;20.00;36.37
47154;BME280;32907;41.412;2.164;2023-04-03T00:31:38;100651.97;;;19.93;36.50
47154;BME280;32907;41.412;2.164;2023-04-03T00:34:06;100674.97;;;20.05;36.75
47154;BME280;32907;41.412;2.164;2023-04-03T00:36:34;100669.88;;;19.99;37.05
47154;BME280;32907;41.412;2.164;2023-04-03T00:39:02;100705.81;;;20.25;36.85
47154;BME280;32907;41.412;2.164;2023-04-03T00:41:30;100701.16;;;20.25;36.95
47154;BME280;32907;41.412;2.164;2023-04-03T00:43:59;100690.56;;;20.24;37.12
47154;BME280;32907;41.412;2.164;2023-04-03T00:46:27;100638.13;;;19.89;37.10
47154;BME280;32907;41.412;2.164;2023-04-03T00:48:55;100690.06;;;20.22;37.00
47154;BME280;32907;41.412;2.164;2023-04-03T00:51:24;100651.09;;;19.97;37.45
47154;BME280;32907;41.412;2.164;2023-04-03T00:53:58;100689.50;;;20.20;37.60
47154;BME280;32907;41.412;2.164;2023-04-03T00:56:28;100654.56;;;20.03;37.65
47154;BME280;32907;41.412;2.164;2023-04-03T00:59:03;100665.59;;;20.17;37.43
47154;BME280;32907;41.412;2.164;2023-04-03T01:01:32;100637.38;;;20.07;37.41
47154;BME280;32907;41.412;2.164;2023-04-03T01:04:00;100654.19;;;20.15;37.42
47154;BME280;32907;41.412;2.164;2023-04-03T01:06:33;100628.44;;;20.02;37.16
47154;BME280;32907;41.412;2.164;2023-04-03T01:09:06;100623.53;;;20.04;36.88
47154;BME280;32907;41.412;2.164;2023-04-03T01:11:35;100630.59;;;20.05;36.38
47154;BME280;32907;41.412;2.164;2023-04-03T01:14:04;100601.09;;;19.88;36.47
47154;BME280;32907;41.412;2.164;2023-04-03T01:16:33;100630.59;;;20.05;36.75
47154;BME280;32907;41.412;2.164;2023-04-03T01:19:03;100637.19;;;19.99;36.24
47154;BME280;32907;41.412;2.164;2023-04-03T01:24:54;100590.78;;;19.61;35.57
47154;BME280;32907;41.412;2.164;2023-04-03T01:27:22;100576.38;;;19.55;35.69
47154;BME280;32907;41.412;2.164;2023-04-03T01:29:50;100642.72;;;19.89;35.75
47154;BME280;32907;41.412;2.164;2023-04-03T01:32:19;100628.09;;;19.84;35.47
47154;BME280;32907;41.412;2.164;2023-04-03T01:34:48;100631.75;;;19.99;35.05
47154;BME280;32907;41.412;2.164;2023-04-03T01:37:17;100637.50;;;19.97;34.87
47154;BME280;32907;41.412;2.164;2023-04-03T01:39:46;100619.97;;;19.79;34.78
47154;BME280;32907;41.412;2.164;2023-04-03T01:42:14;100617.03;;;19.76;34.57
47154;BME280;32907;41.412;2.164;2023-04-03T01:44:44;100631.41;;;19.81;34.57
47154;BME280;32907;41.412;2.164;2023-04-03T01:47:13;100644.09;;;19.91;34.07
47154;BME280;32907;41.412;2.164;2023-04-03T01:49:41;100640.25;;;19.92;34.35
47154;BME280;32907;41.412;2.164;2023-04-03T01:52:09;100620.41;;;19.92;34.00
47154;BME280;32907;41.412;2.164;2023-04-03T01:54:37;100619.88;;;19.90;33.56
47154;BME280;32907;41.412;2.164;2023-04-03T01:57:05;100582.03;;;19.64;33.25
47154;BME280;32907;41.412;2.164;2023-04-03T01:59:33;100609.09;;;19.79;33.83
47154;BME280;32907;41.412;2.164;2023-04-03T02:02:01;100603.28;;;19.62;33.05
47154;BME280;32907;41.412;2.164;2023-04-03T02:04:29;100609.47;;;19.68;32.86
47154;BME280;32907;41.412;2.164;2023-04-03T02:06:58;100633.63;;;19.74;32.60
47154;BME280;32907;41.412;2.164;2023-04-03T02:09:26;100565.16;;;19.33;32.76
47154;BME280;32907;41.412;2.164;2023-04-03T02:11:54;100598.41;;;19.54;32.70
47154;BME280;32907;41.412;2.164;2023-04-03T02:14:22;100605.44;;;19.65;33.24
47154;BME280;32907;41.412;2.164;2023-04-03T02:16:51;100605.44;;;19.65;33.11
47154;BME280;32907;41.412;2.164;2023-04-03T02:19:22;100600.81;;;19.66;32.89
47154;BME280;32907;41.412;2.164;2023-04-03T02:21:50;100587.53;;;19.59;32.88
47154;BME280;32907;41.412;2.164;2023-04-03T02:24:18;100508.72;;;19.20;33.22
47154;BME280;32907;41.412;2.164;2023-04-03T02:26:46;100536.31;;;19.37;33.05
47154;BME280;32907;41.412;2.164;2023-04-03T02:29:14;100549.78;;;19.47;33.01
47154;BME280;32907;41.412;2.164;2023-04-03T02:31:42;100552.75;;;19.51;33.48
47154;BME280;32907;41.412;2.164;2023-04-03T02:34:10;100528.38;;;19.41;33.14
47154;BME280;32907;41.412;2.164;2023-04-03T02:36:38;100564.41;;;19.56;32.93
47154;BME280;32907;41.412;2.164;2023-04-03T02:39:08;100576.03;;;19.67;32.71
47154;BME280;32907;41.412;2.164;2023-04-03T02:41:36;100554.91;;;19.54;33.05
47154;BME280;32907;41.412;2.164;2023-04-03T02:44:10;100568.97;;;19.66;32.98
47154;BME280;32907;41.412;2.164;2023-04-03T02:46:38;100531.53;;;19.53;32.83
47154;BME280;32907;41.412;2.164;2023-04-03T02:49:07;100559.72;;;19.67;33.00
47154;BME280;32907;41.412;2.164;2023-04-03T02:51:34;100545.81;;;19.69;32.94
47154;BME280;32907;41.412;2.164;2023-04-03T02:54:02;100540.41;;;19.64;32.94
47154;BME280;32907;41.412;2.164;2023-04-03T02:56:34;100535.63;;;19.50;33.07
47154;BME280;32907;41.412;2.164;2023-04-03T02:59:01;100562.94;;;19.69;33.14
47154;BME280;32907;41.412;2.164;2023-04-03T03:01:30;100566.75;;;19.68;32.40
47154;BME280;32907;41.412;2.164;2023-04-03T03:04:00;100560.50;;;19.68;32.91
47154;BME280;32907;41.412;2.164;2023-04-03T03:06:28;100512.16;;;19.31;32.55
47154;BME280;32907;41.412;2.164;2023-04-03T03:08:56;100524.91;;;19.35;32.76
47154;BME280;32907;41.412;2.164;2023-04-03T03:11:24;100575.72;;;19.69;33.06
47154;BME280;32907;41.412;2.164;2023-04-03T03:13:53;100552.69;;;19.56;33.42
47154;BME280;32907;41.412;2.164;2023-04-03T03:16:20;100547.84;;;19.53;32.98
47154;BME280;32907;41.412;2.164;2023-04-03T03:18:49;100522.84;;;19.51;32.78
47154;BME280;32907;41.412;2.164;2023-04-03T03:21:17;100523.13;;;19.49;32.36
47154;BME280;32907;41.412;2.164;2023-04-03T03:23:45;100508.88;;;19.34;32.44
47154;BME280;32907;41.412;2.164;2023-04-03T03:26:13;100538.88;;;19.52;32.46
47154;BME280;32907;41.412;2.164;2023-04-03T03:28:40;100536.38;;;19.56;32.26
47154;BME280;32907;41.412;2.164;2023-04-03T03:31:11;100527.75;;;19.49;32.46
47154;BME280;32907;41.412;2.164;2023-04-03T03:33:41;100492.16;;;19.16;32.34
47154;BME280;32907;41.412;2.164;2023-04-03T03:36:09;100539.47;;;19.49;32.31
47154;BME280;32907;41.412;2.164;2023-04-03T03:38:37;100541.63;;;19.47;32.28
47154;BME280;32907;41.412;2.164;2023-04-03T03:41:05;100517.59;;;19.31;32.20
47154;BME280;32907;41.412;2.164;2023-04-03T03:43:34;100498.78;;;19.10;32.88
47154;BME280;32907;41.412;2.164;2023-04-03T03:46:04;100541.44;;;19.39;32.85
47154;BME280;32907;41.412;2.164;2023-04-03T03:48:33;100469.84;;;18.90;32.60
47154;BME280;32907;41.412;2.164;2023-04-03T03:51:01;100544.50;;;19.32;32.60
47154;BME280;32907;41.412;2.164;2023-04-03T03:53:33;100553.38;;;19.43;32.66
47154;BME280;32907;41.412;2.164;2023-04-03T03:56:06;100549.31;;;19.40;32.37
47154;BME280;32907;41.412;2.164;2023-04-03T03:58:36;100529.81;;;19.33;32.74
47154;BME280;32907;41.412;2.164;2023-04-03T04:01:05;100539.81;;;19.38;32.83
47154;BME280;32907;41.412;2.164;2023-04-03T04:03:40;100491.75;;;19.04;32.58
47154;BME280;32907;41.412;2.164;2023-04-03T04:06:12;100489.31;;;19.03;32.40
47154;BME280;32907;41.412;2.164;2023-04-03T04:08:40;100510.06;;;19.22;32.25
47154;BME280;32907;41.412;2.164;2023-04-03T04:11:10;100498.22;;;19.08;32.22
47154;BME280;32907;41.412;2.164;2023-04-03T04:13:39;100500.69;;;19.10;32.85
47154;BME280;32907;41.412;2.164;2023-04-03T04:16:10;100513.97;;;19.11;33.32
47154;BME280;32907;41.412;2.164;2023-04-03T04:18:39;100533.44;;;19.23;32.74
47154;BME280;32907;41.412;2.164;2023-04-03T04:21:06;100521.25;;;19.16;32.75
47154;BME280;32907;41.412;2.164;2023-04-03T04:23:35;100532.91;;;19.21;33.31
47154;BME280;32907;41.412;2.164;2023-04-03T04:26:03;100487.44;;;18.98;33.43
47154;BME280;32907;41.412;2.164;2023-04-03T04:28:34;100524.59;;;19.08;33.59
47154;BME280;32907;41.412;2.164;2023-04-03T04:31:05;100521.53;;;19.14;33.53
47154;BME280;32907;41.412;2.164;2023-04-03T04:33:33;100513.88;;;19.21;33.76
47154;BME280;32907;41.412;2.164;2023-04-03T04:36:03;100496.31;;;19.09;33.86
47154;BME280;32907;41.412;2.164;2023-04-03T04:38:32;100524.66;;;19.32;33.90
47154;BME280;32907;41.412;2.164;2023-04-03T04:41:00;100424.66;;;18.70;34.33
47154;BME280;32907;41.412;2.164;2023-04-03T04:43:28;100476.25;;;19.05;34.60
47154;BME280;32907;41.412;2.164;2023-04-03T04:46:07;100522.47;;;19.34;34.45
47154;BME280;32907;41.412;2.164;2023-04-03T04:48:41;100524.16;;;19.24;33.44
47154;BME280;32907;41.412;2.164;2023-04-03T04:51:13;100523.56;;;19.33;33.86
47154;BME280;32907;41.412;2.164;2023-04-03T04:53:42;100520.84;;;19.33;34.08
47154;BME280;32907;41.412;2.164;2023-04-03T04:56:13;100528.72;;;19.34;34.25
47154;BME280;32907;41.412;2.164;2023-04-03T04:58:42;100499.03;;;19.09;34.31
47154;BME280;32907;41.412;2.164;2023-04-03T05:01:10;100526.88;;;19.24;34.16
47154;BME280;32907;41.412;2.164;2023-04-03T05:03:47;100502.03;;;19.07;33.87
47154;BME280;32907;41.412;2.164;2023-04-03T05:06:17;100505.53;;;19.13;34.16
47154;BME280;32907;41.412;2.164;2023-04-03T05:08:46;100514.19;;;19.15;33.92
47154;BME280;32907;41.412;2.164;2023-04-03T05:11:14;100503.03;;;19.16;34.22
47154;BME280;32907;41.412;2.164;2023-04-03T05:13:43;100523.28;;;19.34;34.37
47154;BME280;32907;41.412;2.164;2023-04-03T05:16:11;100515.38;;;19.33;34.68
47154;BME280;32907;41.412;2.164;2023-04-03T05:18:39;100526.75;;;19.40;34.39
47154;BME280;32907;41.412;2.164;2023-04-03T05:21:10;100502.41;;;19.24;34.54
47154;BME280;32907;41.412;2.164;2023-04-03T05:23:38;100465.72;;;18.98;34.17
47154;BME280;32907;41.412;2.164;2023-04-03T05:26:06;100535.50;;;19.37;33.61
47154;BME280;32907;41.412;2.164;2023-04-03T05:28:34;100536.00;;;19.39;33.56
47154;BME280;32907;41.412;2.164;2023-04-03T05:31:02;100554.19;;;19.43;33.13
47154;BME280;32907;41.412;2.164;2023-04-03T05:33:34;100551.78;;;19.42;33.34
47154;BME280;32907;41.412;2.164;2023-04-03T05:36:07;100490.97;;;18.98;33.26
47154;BME280;32907;41.412;2.164;2023-04-03T05:38:41;100499.63;;;19.06;33.05
47154;BME280;32907;41.412;2.164;2023-04-03T05:41:09;100566.97;;;19.43;32.92
47154;BME280;32907;41.412;2.164;2023-04-03T05:43:37;100570.50;;;19.43;33.20
47154;BME280;32907;41.412;2.164;2023-04-03T05:46:13;100565.38;;;19.42;33.04
47154;BME280;32907;41.412;2.164;2023-04-03T05:48:44;100560.25;;;19.35;33.53
47154;BME280;32907;41.412;2.164;2023-04-03T05:51:20;100564.91;;;19.29;32.81
47154;BME280;32907;41.412;2.164;2023-04-03T05:54:16;100571.41;;;19.34;32.84
47154;BME280;32907;41.412;2.164;2023-04-03T05:56:45;100549.81;;;19.13;32.87
47154;BME280;32907;41.412;2.164;2023-04-03T05:59:14;100503.84;;;18.88;32.98
47154;BME280;32907;41.412;2.164;2023-04-03T06:01:43;100558.97;;;19.27;33.07
47154;BME280;32907;41.412;2.164;2023-04-03T06:04:11;100521.44;;;18.95;32.96
47154;BME280;32907;41.412;2.164;2023-04-03T06:09:14;100567.63;;;19.29;33.23
47154;BME280;32907;41.412;2.164;2023-04-03T06:11:44;100510.31;;;18.92;33.46
47154;BME280;32907;41.412;2.164;2023-04-03T06:14:12;100566.25;;;19.32;33.82
47154;BME280;32907;41.412;2.164;2023-04-03T06:16:41;100523.03;;;19.02;32.73
47154;BME280;32907;41.412;2.164;2023-04-03T06:19:10;100539.00;;;19.08;32.89
47154;BME280;32907;41.412;2.164;2023-04-03T06:21:42;100548.72;;;19.14;33.26
47154;BME280;32907;41.412;2.164;2023-04-03T06:24:14;100551.34;;;19.24;33.35
47154;BME280;32907;41.412;2.164;2023-04-03T06:26:43;100534.38;;;19.09;33.84
47154;BME280;32907;41.412;2.164;2023-04-03T06:29:11;100525.97;;;19.05;34.26
47154;BME280;32907;41.412;2.164;2023-04-03T06:31:40;100531.91;;;19.12;34.98
47154;BME280;32907;41.412;2.164;2023-04-03T06:34:08;100569.25;;;19.31;34.44
47154;BME280;32907;41.412;2.164;2023-04-03T06:36:37;100519.16;;;19.08;34.49
47154;BME280;32907;41.412;2.164;2023-04-03T06:39:05;100565.22;;;19.28;34.05
47154;BME280;32907;41.412;2.164;2023-04-03T06:41:34;100540.63;;;19.09;34.06
47154;BME280;32907;41.412;2.164;2023-04-03T06:44:03;100542.28;;;19.05;34.18
47154;BME280;32907;41.412;2.164;2023-04-03T06:46:31;100569.06;;;19.22;33.98
47154;BME280;32907;41.412;2.164;2023-04-03T06:48:59;100509.81;;;18.85;33.56
47154;BME280;32907;41.412;2.164;2023-04-03T06:51:28;100596.41;;;19.36;33.39
47154;BME280;32907;41.412;2.164;2023-04-03T06:53:58;100582.31;;;19.28;33.57
47154;BME280;32907;41.412;2.164;2023-04-03T06:56:26;100590.97;;;19.36;33.20
47154;BME280;32907;41.412;2.164;2023-04-03T06:58:55;100550.41;;;19.10;33.30
47154;BME280;32907;41.412;2.164;2023-04-03T07:01:27;100578.59;;;19.19;32.77
47154;BME280;32907;41.412;2.164;2023-04-03T07:03:56;100589.69;;;19.28;32.41
47154;BME280;32907;41.412;2.164;2023-04-03T07:06:24;100586.44;;;19.26;32.20
47154;BME280;32907;41.412;2.164;2023-04-03T07:08:55;100578.31;;;19.21;32.40
47154;BME280;32907;41.412;2.164;2023-04-03T07:11:23;100587.25;;;19.26;32.60
47154;BME280;32907;41.412;2.164;2023-04-03T07:13:51;100579.69;;;19.18;33.02
47154;BME280;32907;41.412;2.164;2023-04-03T07:16:20;100575.63;;;19.16;33.00
47154;BME280;32907;41.412;2.164;2023-04-03T07:18:48;100571.06;;;19.11;32.82
47154;BME280;32907;41.412;2.164;2023-04-03T07:21:16;100608.69;;;19.33;33.67
47154;BME280;32907;41.412;2.164;2023-04-03T07:23:44;100594.03;;;19.24;32.78
47154;BME280;32907;41.412;2.164;2023-04-03T07:26:13;100601.88;;;19.31;32.57
47154;BME280;32907;41.412;2.164;2023-04-03T07:28:41;100600.78;;;19.32;32.43
47154;BME280;32907;41.412;2.164;2023-04-03T07:31:12;100582.34;;;19.23;32.77
47154;BME280;32907;41.412;2.164;2023-04-03T07:33:45;100606.47;;;19.35;32.64
47154;BME280;32907;41.412;2.164;2023-04-03T07:36:17;100592.19;;;19.19;32.10
47154;BME280;32907;41.412;2.164;2023-04-03T07:38:45;100589.47;;;19.19;32.70
47154;BME280;32907;41.412;2.164;2023-04-03T07:41:16;100564.84;;;19.06;32.82
47154;BME280;32907;41.412;2.164;2023-04-03T07:43:45;100608.91;;;19.37;32.97
47154;BME280;32907;41.412;2.164;2023-04-03T07:46:15;100467.72;;;18.48;33.20
47154;BME280;32907;41.412;2.164;2023-04-03T07:48:46;100623.50;;;19.46;33.05
47154;BME280;32907;41.412;2.164;2023-04-03T07:51:14;100450.13;;;18.35;32.90
47154;BME280;32907;41.412;2.164;2023-04-03T07:53:42;100602.34;;;19.43;34.41
47154;BME280;32907;41.412;2.164;2023-04-03T07:56:11;100557.38;;;19.21;33.35
47154;BME280;32907;41.412;2.164;2023-04-03T07:58:40;100529.00;;;19.04;33.26
47154;BME280;32907;41.412;2.164;2023-04-03T08:01:08;100612.81;;;19.60;33.20
47154;BME280;32907;41.412;2.164;2023-04-03T08:03:35;100626.13;;;19.61;33.25
47154;BME280;32907;41.412;2.164;2023-04-03T08:06:07;100616.06;;;19.62;32.48
47154;BME280;32907;41.412;2.164;2023-04-03T08:08:41;100620.69;;;19.61;32.52
47154;BME280;32907;41.412;2.164;2023-04-03T08:11:11;100618.56;;;19.58;32.57
47154;BME280;32907;41.412;2.164;2023-04-03T08:13:40;100584.72;;;19.35;32.88
47154;BME280;32907;41.412;2.164;2023-04-03T08:16:12;100557.09;;;19.23;32.14
47154;BME280;32907;41.412;2.164;2023-04-03T08:18:40;100620.09;;;19.64;32.32
47154;BME280;32907;41.412;2.164;2023-04-03T08:21:09;100615.72;;;19.68;33.17
47154;BME280;32907;41.412;2.164;2023-04-03T08:23:39;100573.13;;;19.53;33.75
47154;BME280;32907;41.412;2.164;2023-04-03T08:26:13;100606.84;;;19.87;34.04
47154;BME280;32907;41.412;2.164;2023-04-03T08:28:41;100598.97;;;19.85;34.50
47154;BME280;32907;41.412;2.164;2023-04-03T08:31:13;100554.25;;;19.67;34.59
47154;BME280;32907;41.412;2.164;2023-04-03T08:33:41;100587.97;;;19.95;34.05
47154;BME280;32907;41.412;2.164;2023-04-03T08:36:29;100597.13;;;20.04;33.29
47154;BME280;32907;41.412;2.164;2023-04-03T08:38:58;100606.69;;;20.02;32.62
47154;BME280;32907;41.412;2.164;2023-04-03T08:41:30;100604.53;;;19.99;32.47
47154;BME280;32907;41.412;2.164;2023-04-03T08:49:39;100538.06;;;19.57;32.96
47154;BME280;32907;41.412;2.164;2023-04-03T08:52:11;100593.69;;;19.94;32.92
47154;BME280;32907;41.412;2.164;2023-04-03T08:55:01;100589.84;;;20.00;33.58
47154;BME280;32907;41.412;2.164;2023-04-03T08:57:34;100587.09;;;20.00;32.50
47154;BME280;32907;41.412;2.164;2023-04-03T09:00:09;100581.06;;;20.03;32.99
47154;BME280;32907;41.412;2.164;2023-04-03T09:02:54;100563.81;;;19.89;33.56
47154;BME280;32907;41.412;2.164;2023-04-03T09:05:43;100580.69;;;20.15;33.54
47154;BME280;32907;41.412;2.164;2023-04-03T09:08:22;100583.31;;;20.20;33.41
47154;BME280;32907;41.412;2.164;2023-04-03T09:16:19;100564.00;;;20.21;33.16
47154;BME280;32907;41.412;2.164;2023-04-03T09:18:56;100572.03;;;20.31;33.56
47154;BME280;32907;41.412;2.164;2023-04-03T09:21:38;100581.75;;;20.37;33.24
47154;BME280;32907;41.412;2.164;2023-04-03T09:24:06;100541.97;;;20.18;33.01
47154;BME280;32907;41.412;2.164;2023-04-03T09:26:48;100569.72;;;20.44;32.70
47154;BME280;32907;41.412;2.164;2023-04-03T09:29:22;100537.59;;;20.22;32.29
47154;BME280;32907;41.412;2.164;2023-04-03T09:32:00;100526.59;;;20.08;31.82
47154;BME280;32907;41.412;2.164;2023-04-03T09:34:35;100571.94;;;20.36;31.90
47154;BME280;32907;41.412;2.164;2023-04-03T09:37:05;100563.88;;;20.31;32.42
47154;BME280;32907;41.412;2.164;2023-04-03T09:39:53;100585.28;;;20.38;32.00
47154;BME280;32907;41.412;2.164;2023-04-03T09:42:25;100581.00;;;20.32;32.38
47154;BME280;32907;41.412;2.164;2023-04-03T09:44:57;100587.84;;;20.29;32.16
47154;BME280;32907;41.412;2.164;2023-04-03T09:47:31;100561.84;;;20.18;32.83
47154;BME280;32907;41.412;2.164;2023-04-03T09:52:50;100585.06;;;20.34;33.41
47154;BME280;32907;41.412;2.164;2023-04-03T09:57:49;100584.25;;;20.34;33.14
47154;BME280;32907;41.412;2.164;2023-04-03T10:00:40;100565.63;;;20.22;33.03
47154;BME280;32907;41.412;2.164;2023-04-03T10:03:25;100550.28;;;20.07;33.21
47154;BME280;32907;41.412;2.164;2023-04-03T10:05:56;100539.44;;;20.02;33.60
47154;BME280;32907;41.412;2.164;2023-04-03T10:08:32;100525.06;;;19.97;33.51
47154;BME280;32907;41.412;2.164;2023-04-03T10:11:11;100567.44;;;20.27;33.90
47154;BME280;32907;41.412;2.164;2023-04-03T10:13:54;100543.94;;;20.12;33.89
47154;BME280;32907;41.412;2.164;2023-04-03T10:16:27;100542.09;;;20.07;33.97
47154;BME280;32907;41.412;2.164;2023-04-03T10:29:36;100541.94;;;20.42;36.96
47154;BME280;32907;41.412;2.164;2023-04-03T10:40:52;100525.88;;;20.40;35.41
47154;BME280;32907;41.412;2.164;2023-04-03T10:43:45;100519.63;;;20.39;35.12
47154;BME280;32907;41.412;2.164;2023-04-03T10:52:17;100526.75;;;20.35;35.72
47154;BME280;32907;41.412;2.164;2023-04-03T10:54:57;100511.53;;;20.34;35.30
47154;BME280;32907;41.412;2.164;2023-04-03T10:57:30;100489.59;;;20.26;34.92
47154;BME280;32907;41.412;2.164;2023-04-03T11:00:02;100519.69;;;20.34;35.04
47154;BME280;32907;41.412;2.164;2023-04-03T11:02:59;100490.47;;;20.21;38.55
47154;BME280;32907;41.412;2.164;2023-04-03T11:05:39;100469.41;;;19.89;35.04
47154;BME280;32907;41.412;2.164;2023-04-03T11:11:13;100497.78;;;19.83;35.75
47154;BME280;32907;41.412;2.164;2023-04-03T11:14:09;100486.06;;;19.82;36.65
47154;BME280;32907;41.412;2.164;2023-04-03T11:16:47;100493.75;;;19.99;37.11
47154;BME280;32907;41.412;2.164;2023-04-03T11:19:25;100487.06;;;19.92;36.90
47154;BME280;32907;41.412;2.164;2023-04-03T11:22:29;100496.94;;;20.06;37.07
47154;BME280;32907;41.412;2.164;2023-04-03T11:25:06;100469.47;;;19.84;36.48
47154;BME280;32907;41.412;2.164;2023-04-03T11:27:57;100488.03;;;20.01;36.87
47154;BME280;32907;41.412;2.164;2023-04-03T11:35:57;100491.09;;;20.13;38.26
47154;BME280;32907;41.412;2.164;2023-04-03T11:38:33;100467.06;;;20.01;37.23
47154;BME280;32907;41.412;2.164;2023-04-03T11:41:05;100496.56;;;20.13;37.04
47154;BME280;32907;41.412;2.164;2023-04-03T11:43:54;100460.66;;;19.92;37.34
47154;BME280;32907;41.412;2.164;2023-04-03T11:46:51;100486.78;;;20.12;38.61
47154;BME280;32907;41.412;2.164;2023-04-03T11:50:02;100479.19;;;20.09;38.45
47154;BME280;32907;41.412;2.164;2023-04-03T12:16:41;100463.88;;;20.13;39.25
47154;BME280;32907;41.412;2.164;2023-04-03T12:24:34;100436.97;;;19.93;40.03
47154;BME280;32907;41.412;2.164;2023-04-03T12:29:51;100407.72;;;19.79;39.85
47154;BME280;32907;41.412;2.164;2023-04-03T12:41:28;100396.50;;;19.86;40.04
47154;BME280;32907;41.412;2.164;2023-04-03T12:44:30;100428.09;;;20.06;39.54
47154;BME280;32907;41.412;2.164;2023-04-03T12:47:01;100423.06;;;19.94;39.37
47154;BME280;32907;41.412;2.164;2023-04-03T12:49:40;100437.56;;;20.08;39.44
47154;BME280;32907;41.412;2.164;2023-04-03T12:52:22;100385.25;;;19.74;39.88
47154;BME280;32907;41.412;2.164;2023-04-03T12:54:54;100423.13;;;20.08;40.07
47154;BME280;32907;41.412;2.164;2023-04-03T12:57:25;100418.50;;;20.08;39.99
47154;BME280;32907;41.412;2.164;2023-04-03T12:59:54;100399.50;;;20.03;39.77
47154;BME280;32907;41.412;2.164;2023-04-03T13:02:29;100408.78;;;20.02;40.36
47154;BME280;32907;41.412;2.164;2023-04-03T13:04:59;100366.47;;;19.72;39.92
47154;BME280;32907;41.412;2.164;2023-04-03T13:07:36;100430.81;;;20.06;40.13
47154;BME280;32907;41.412;2.164;2023-04-03T13:15:30;100404.84;;;20.14;40.37
47154;BME280;32907;41.412;2.164;2023-04-03T13:18:29;100383.63;;;19.92;40.73
47154;BME280;32907;41.412;2.164;2023-04-03T13:23:35;100419.31;;;20.09;40.69
47154;BME280;32907;41.412;2.164;2023-04-03T13:26:05;100412.31;;;20.03;40.65
47154;BME280;32907;41.412;2.164;2023-04-03T13:28:34;100378.94;;;19.97;41.62
47154;BME280;32907;41.412;2.164;2023-04-03T13:31:25;100400.41;;;20.18;42.39
47154;BME280;32907;41.412;2.164;2023-04-03T13:34:11;100365.03;;;19.99;43.17
47154;BME280;32907;41.412;2.164;2023-04-03T13:36:46;100394.59;;;20.24;41.42
47154;BME280;32907;41.412;2.164;2023-04-03T13:39:25;100378.41;;;20.14;41.18
47154;BME280;32907;41.412;2.164;2023-04-03T13:41:57;100357.22;;;20.11;41.01
47154;BME280;32907;41.412;2.164;2023-04-03T13:44:29;100376.53;;;20.28;40.81
47154;BME280;32907;41.412;2.164;2023-04-03T13:47:17;100383.09;;;20.27;40.92
47154;BME280;32907;41.412;2.164;2023-04-03T13:50:02;100374.94;;;20.27;40.59
47154;BME280;32907;41.412;2.164;2023-04-03T13:52:40;100345.44;;;19.97;40.26
47154;BME280;32907;41.412;2.164;2023-04-03T13:55:26;100393.53;;;20.20;40.93
47154;BME280;32907;41.412;2.164;2023-04-03T14:00:39;100382.16;;;20.18;40.98
47154;BME280;32907;41.412;2.164;2023-04-03T14:05:49;100379.59;;;20.08;41.10
47154;BME280;32907;41.412;2.164;2023-04-03T14:08:18;100384.13;;;20.12;41.09
47154;BME280;32907;41.412;2.164;2023-04-03T14:10:58;100351.13;;;20.00;40.11
47154;BME280;32907;41.412;2.164;2023-04-03T14:13:30;100384.88;;;20.18;40.12
47154;BME280;32907;41.412;2.164;2023-04-03T14:15:58;100394.09;;;20.22;40.08
47154;BME280;32907;41.412;2.164;2023-04-03T14:18:43;100345.25;;;19.93;40.08
47154;BME280;32907;41.412;2.164;2023-04-03T14:21:13;100365.16;;;20.07;40.32
47154;BME280;32907;41.412;2.164;2023-04-03T14:23:42;100356.78;;;20.04;40.28
47154;BME280;32907;41.412;2.164;2023-04-03T14:26:16;100356.25;;;20.02;40.15
47154;BME280;32907;41.412;2.164;2023-04-03T14:28:50;100363.31;;;20.03;40.37
47154;BME280;32907;41.412;2.164;2023-04-03T14:31:19;100324.94;;;19.86;39.97
47154;BME280;32907;41.412;2.164;2023-04-03T14:33:49;100393.53;;;20.20;40.00
47154;BME280;32907;41.412;2.164;2023-04-03T14:36:21;100377.22;;;20.20;40.19
47154;BME280;32907;41.412;2.164;2023-04-03T14:38:51;100366.31;;;20.20;40.00
47154;BME280;32907;41.412;2.164;2023-04-03T14:41:21;100328.91;;;19.93;39.69
47154;BME280;32907;41.412;2.164;2023-04-03T14:43:56;100337.28;;;19.97;40.17
47154;BME280;32907;41.412;2.164;2023-04-03T14:46:35;100351.09;;;20.19;39.90
47154;BME280;32907;41.412;2.164;2023-04-03T14:49:27;100356.03;;;20.17;39.97
47154;BME280;32907;41.412;2.164;2023-04-03T14:51:57;100313.47;;;19.89;40.22
47154;BME280;32907;41.412;2.164;2023-04-03T14:54:26;100313.38;;;19.94;40.43
47154;BME280;32907;41.412;2.164;2023-04-03T14:56:58;100332.72;;;20.11;40.90
47154;BME280;32907;41.412;2.164;2023-04-03T14:59:28;100295.69;;;19.77;40.92
47154;BME280;32907;41.412;2.164;2023-04-03T15:01:56;100360.31;;;20.04;40.98
47154;BME280;32907;41.412;2.164;2023-04-03T15:04:25;100355.09;;;20.08;41.09
47154;BME280;32907;41.412;2.164;2023-04-03T15:06:53;100342.16;;;20.00;40.87